sensor_id;sensor_type;location;lat;lon;timestamp;temperature;humidity
12013;DHT22;6065;48.138;16.402;2023-11-21T00:00:57;8.80;99.90
12013;DHT22;6065;48.138;16.402;2023-11-21T00:03:24;8.80;99.90
12013;DHT22;6065;48.138;16.402;2023-11-21T00:05:53;8.80;99.90
12013;DHT22;6065;48.138;16.402;2023-11-21T00:08:21;8.80;99.90
12013;DHT22;6065;48.138;16.402;2023-11-21T00:10:48;8.80;99.90
12013;DHT22;6065;48.138;16.402;2023-11-21T00:13:15;8.80;99.90
12013;DHT22;6065;48.138;16.402;2023-11-21T00:15:41;8.80;99.90
12013;DHT22;6065;48.138;16.402;2023-11-21T00:18:08;8.70;99.90
12013;DHT22;6065;48.138;16.402;2023-11-21T00:20:35;8.70;99.90
12013;DHT22;6065;48.138;16.402;2023-11-21T00:23:02;8.70;99.90
12013;DHT22;6065;48.138;16.402;2023-11-21T00:25:30;8.70;99.90
12013;DHT22;6065;48.138;16.402;2023-11-21T00:27:57;8.70;99.90
12013;DHT22;6065;48.138;16.402;2023-11-21T00:30:24;8.70;99.90
12013;DHT22;6065;48.138;16.402;2023-11-21T00:32:51;8.60;99.90
12013;DHT22;6065;48.138;16.402;2023-11-21T00:35:18;8.60;99.90
12013;DHT22;6065;48.138;16.402;2023-11-21T00:37:45;8.60;99.90
12013;DHT22;6065;48.138;16.402;2023-11-21T00:40:12;8.60;99.90
12013;DHT22;6065;48.138;16.402;2023-11-21T00:42:42;8.50;99.90
12013;DHT22;6065;48.138;16.402;2023-11-21T00:45:09;8.50;99.90
12013;DHT22;6065;48.138;16.402;2023-11-21T00:47:36;8.40;99.90
12013;DHT22;6065;48.138;16.402;2023-11-21T00:50:04;8.40;99.90
12013;DHT22;6065;48.138;16.402;2023-11-21T00:52:31;8.40;99.90
12013;DHT22;6065;48.138;16.402;2023-11-21T00:54:58;8.40;99.90
12013;DHT22;6065;48.138;16.402;2023-11-21T00:57:25;8.30;99.90
12013;DHT22;6065;48.138;16.402;2023-11-21T00:59:53;8.30;99.90
12013;DHT22;6065;48.138;16.402;2023-11-21T01:02:20;8.30;99.90
12013;DHT22;6065;48.138;16.402;2023-11-21T01:04:47;8.30;99.90
12013;DHT22;6065;48.138;16.402;2023-11-21T01:07:14;8.30;99.90
12013;DHT22;6065;48.138;16.402;2023-11-21T01:09:40;8.20;99.90
12013;DHT22;6065;48.138;16.402;2023-11-21T01:12:09;8.20;99.90
12013;DHT22;6065;48.138;16.402;2023-11-21T01:14:36;8.20;99.90
12013;DHT22;6065;48.138;16.402;2023-11-21T01:17:05;8.20;99.90
12013;DHT22;6065;48.138;16.402;2023-11-21T01:19:31;8.20;99.90
12013;DHT22;6065;48.138;16.402;2023-11-21T01:21:58;8.20;99.90
12013;DHT22;6065;48.138;16.402;2023-11-21T01:24:25;8.20;99.90
12013;DHT22;6065;48.138;16.402;2023-11-21T01:26:52;8.20;99.90
12013;DHT22;6065;48.138;16.402;2023-11-21T01:29:18;8.20;99.90
12013;DHT22;6065;48.138;16.402;2023-11-21T01:31:45;8.10;99.90
12013;DHT22;6065;48.138;16.402;2023-11-21T01:34:13;8.10;99.90
12013;DHT22;6065;48.138;16.402;2023-11-21T01:36:40;8.10;99.90
12013;DHT22;6065;48.138;16.402;2023-11-21T01:39:07;8.10;99.90
12013;DHT22;6065;48.138;16.402;2023-11-21T01:41:37;8.00;99.90
12013;DHT22;6065;48.138;16.402;2023-11-21T01:44:03;8.00;99.90
12013;DHT22;6065;48.138;16.402;2023-11-21T01:46:33;7.90;99.90
12013;DHT22;6065;48.138;16.402;2023-11-21T01:49:00;7.90;99.90
12013;DHT22;6065;48.138;16.402;2023-11-21T01:51:28;7.80;99.90
12013;DHT22;6065;48.138;16.402;2023-11-21T01:53:56;7.80;99.90
12013;DHT22;6065;48.138;16.402;2023-11-21T01:56:24;7.80;99.90
12013;DHT22;6065;48.138;16.402;2023-11-21T01:58:51;7.80;99.90
12013;DHT22;6065;48.138;16.402;2023-11-21T02:01:19;7.80;99.90
12013;DHT22;6065;48.138;16.402;2023-11-21T02:03:46;7.80;99.90
12013;DHT22;6065;48.138;16.402;2023-11-21T02:06:12;7.80;99.90
12013;DHT22;6065;48.138;16.402;2023-11-21T02:08:41;7.80;99.90
12013;DHT22;6065;48.138;16.402;2023-11-21T02:11:09;7.80;99.90
12013;DHT22;6065;48.138;16.402;2023-11-21T02:13:38;7.80;99.90
12013;DHT22;6065;48.138;16.402;2023-11-21T02:16:07;7.80;99.90
12013;DHT22;6065;48.138;16.402;2023-11-21T02:18:34;7.80;99.90
12013;DHT22;6065;48.138;16.402;2023-11-21T02:21:03;7.80;99.90
12013;DHT22;6065;48.138;16.402;2023-11-21T02:23:31;7.80;99.90
12013;DHT22;6065;48.138;16.402;2023-11-21T02:25:58;7.80;99.90
12013;DHT22;6065;48.138;16.402;2023-11-21T02:28:29;7.80;99.90
12013;DHT22;6065;48.138;16.402;2023-11-21T02:30:56;7.80;99.90
12013;DHT22;6065;48.138;16.402;2023-11-21T02:33:24;7.80;99.90
12013;DHT22;6065;48.138;16.402;2023-11-21T02:35:51;7.90;99.90
12013;DHT22;6065;48.138;16.402;2023-11-21T02:38:18;7.80;99.90
12013;DHT22;6065;48.138;16.402;2023-11-21T02:40:46;7.90;99.90
12013;DHT22;6065;48.138;16.402;2023-11-21T02:43:14;7.90;99.90
12013;DHT22;6065;48.138;16.402;2023-11-21T02:45:41;7.90;99.90
12013;DHT22;6065;48.138;16.402;2023-11-21T02:48:08;8.00;99.90
12013;DHT22;6065;48.138;16.402;2023-11-21T02:50:35;8.00;99.90
12013;DHT22;6065;48.138;16.402;2023-11-21T02:53:02;8.10;99.90
12013;DHT22;6065;48.138;16.402;2023-11-21T02:55:31;8.10;99.90
12013;DHT22;6065;48.138;16.402;2023-11-21T02:58:01;8.20;99.90
12013;DHT22;6065;48.138;16.402;2023-11-21T03:00:29;8.30;99.90
12013;DHT22;6065;48.138;16.402;2023-11-21T03:02:55;8.30;99.90
12013;DHT22;6065;48.138;16.402;2023-11-21T03:05:22;8.30;99.90
12013;DHT22;6065;48.138;16.402;2023-11-21T03:07:49;8.40;99.90
12013;DHT22;6065;48.138;16.402;2023-11-21T03:10:16;8.40;99.90
12013;DHT22;6065;48.138;16.402;2023-11-21T03:12:44;8.40;99.90
12013;DHT22;6065;48.138;16.402;2023-11-21T03:15:12;8.50;99.90
12013;DHT22;6065;48.138;16.402;2023-11-21T03:17:40;8.50;99.90
12013;DHT22;6065;48.138;16.402;2023-11-21T03:20:07;8.50;99.90
12013;DHT22;6065;48.138;16.402;2023-11-21T03:22:36;8.50;99.90
12013;DHT22;6065;48.138;16.402;2023-11-21T03:25:03;8.50;99.90
12013;DHT22;6065;48.138;16.402;2023-11-21T03:27:30;8.50;99.90
12013;DHT22;6065;48.138;16.402;2023-11-21T03:29:57;8.50;99.90
12013;DHT22;6065;48.138;16.402;2023-11-21T03:32:25;8.60;99.90
12013;DHT22;6065;48.138;16.402;2023-11-21T03:34:55;8.50;99.90
12013;DHT22;6065;48.138;16.402;2023-11-21T03:37:23;8.50;99.90
12013;DHT22;6065;48.138;16.402;2023-11-21T03:39:50;8.50;99.90
12013;DHT22;6065;48.138;16.402;2023-11-21T03:42:16;8.50;99.90
12013;DHT22;6065;48.138;16.402;2023-11-21T03:44:43;8.50;99.90
12013;DHT22;6065;48.138;16.402;2023-11-21T03:47:10;8.60;99.90
12013;DHT22;6065;48.138;16.402;2023-11-21T03:49:38;8.60;99.90
12013;DHT22;6065;48.138;16.402;2023-11-21T03:52:05;8.60;99.90
12013;DHT22;6065;48.138;16.402;2023-11-21T03:54:33;8.60;99.90
12013;DHT22;6065;48.138;16.402;2023-11-21T03:56:59;8.60;99.90
12013;DHT22;6065;48.138;16.402;2023-11-21T03:59:26;8.60;99.90
12013;DHT22;6065;48.138;16.402;2023-11-21T04:01:54;8.60;99.90
12013;DHT22;6065;48.138;16.402;2023-11-21T04:04:21;8.60;99.90
12013;DHT22;6065;48.138;16.402;2023-11-21T04:06:49;8.60;99.90
12013;DHT22;6065;48.138;16.402;2023-11-21T04:09:17;8.50;99.90
12013;DHT22;6065;48.138;16.402;2023-11-21T04:11:44;8.50;99.90
12013;DHT22;6065;48.138;16.402;2023-11-21T04:14:11;8.50;99.90
12013;DHT22;6065;48.138;16.402;2023-11-21T04:16:37;8.50;99.90
12013;DHT22;6065;48.138;16.402;2023-11-21T04:19:04;8.50;99.90
12013;DHT22;6065;48.138;16.402;2023-11-21T04:21:31;8.50;99.90
12013;DHT22;6065;48.138;16.402;2023-11-21T04:24:00;8.50;99.90
12013;DHT22;6065;48.138;16.402;2023-11-21T04:26:26;8.50;99.90
12013;DHT22;6065;48.138;16.402;2023-11-21T04:28:53;8.50;99.90
12013;DHT22;6065;48.138;16.402;2023-11-21T04:31:20;8.50;99.90
12013;DHT22;6065;48.138;16.402;2023-11-21T04:33:46;8.50;99.90
12013;DHT22;6065;48.138;16.402;2023-11-21T04:36:13;8.50;99.90
12013;DHT22;6065;48.138;16.402;2023-11-21T04:38:40;8.50;99.90
12013;DHT22;6065;48.138;16.402;2023-11-21T04:41:08;8.50;99.90
12013;DHT22;6065;48.138;16.402;2023-11-21T04:43:35;8.40;99.90
12013;DHT22;6065;48.138;16.402;2023-11-21T04:46:01;8.40;99.90
12013;DHT22;6065;48.138;16.402;2023-11-21T04:48:28;8.40;99.90
12013;DHT22;6065;48.138;16.402;2023-11-21T04:50:55;8.40;99.90
12013;DHT22;6065;48.138;16.402;2023-11-21T04:53:22;8.30;99.90
12013;DHT22;6065;48.138;16.402;2023-11-21T04:55:48;8.30;99.90
12013;DHT22;6065;48.138;16.402;2023-11-21T04:58:17;8.30;99.90
12013;DHT22;6065;48.138;16.402;2023-11-21T05:00:44;8.30;99.90
12013;DHT22;6065;48.138;16.402;2023-11-21T05:03:11;8.30;99.90
12013;DHT22;6065;48.138;16.402;2023-11-21T05:05:38;8.20;99.90
12013;DHT22;6065;48.138;16.402;2023-11-21T05:08:05;8.20;99.90
12013;DHT22;6065;48.138;16.402;2023-11-21T05:10:31;8.20;99.90
12013;DHT22;6065;48.138;16.402;2023-11-21T05:12:58;8.20;99.90
12013;DHT22;6065;48.138;16.402;2023-11-21T05:15:26;8.10;99.90
12013;DHT22;6065;48.138;16.402;2023-11-21T05:17:53;8.10;99.90
12013;DHT22;6065;48.138;16.402;2023-11-21T05:20:20;8.10;99.90
12013;DHT22;6065;48.138;16.402;2023-11-21T05:22:47;8.00;99.90
12013;DHT22;6065;48.138;16.402;2023-11-21T05:25:17;8.00;99.90
12013;DHT22;6065;48.138;16.402;2023-11-21T05:27:44;7.90;99.90
12013;DHT22;6065;48.138;16.402;2023-11-21T05:30:11;7.80;99.90
12013;DHT22;6065;48.138;16.402;2023-11-21T05:32:39;7.80;99.90
12013;DHT22;6065;48.138;16.402;2023-11-21T05:35:07;7.80;99.90
12013;DHT22;6065;48.138;16.402;2023-11-21T05:37:37;7.70;99.90
12013;DHT22;6065;48.138;16.402;2023-11-21T05:40:04;7.70;99.90
12013;DHT22;6065;48.138;16.402;2023-11-21T05:42:31;7.70;99.90
12013;DHT22;6065;48.138;16.402;2023-11-21T05:44:58;7.70;99.90
12013;DHT22;6065;48.138;16.402;2023-11-21T05:47:35;7.70;99.90
12013;DHT22;6065;48.138;16.402;2023-11-21T05:50:04;7.70;99.90
12013;DHT22;6065;48.138;16.402;2023-11-21T05:52:31;7.70;99.90
12013;DHT22;6065;48.138;16.402;2023-11-21T05:54:58;7.70;99.90
12013;DHT22;6065;48.138;16.402;2023-11-21T05:57:25;7.60;99.90
12013;DHT22;6065;48.138;16.402;2023-11-21T05:59:51;7.60;99.90
12013;DHT22;6065;48.138;16.402;2023-11-21T06:02:18;7.50;99.90
12013;DHT22;6065;48.138;16.402;2023-11-21T06:04:45;7.60;99.90
12013;DHT22;6065;48.138;16.402;2023-11-21T06:07:13;7.60;99.90
12013;DHT22;6065;48.138;16.402;2023-11-21T06:09:40;7.50;99.90
12013;DHT22;6065;48.138;16.402;2023-11-21T06:12:07;7.50;99.90
12013;DHT22;6065;48.138;16.402;2023-11-21T06:14:33;7.50;99.90
12013;DHT22;6065;48.138;16.402;2023-11-21T06:17:00;7.50;99.90
12013;DHT22;6065;48.138;16.402;2023-11-21T06:19:27;7.50;99.90
12013;DHT22;6065;48.138;16.402;2023-11-21T06:21:54;7.50;99.90
12013;DHT22;6065;48.138;16.402;2023-11-21T06:24:22;7.50;99.90
12013;DHT22;6065;48.138;16.402;2023-11-21T06:26:49;7.50;99.90
12013;DHT22;6065;48.138;16.402;2023-11-21T06:29:16;7.50;99.90
12013;DHT22;6065;48.138;16.402;2023-11-21T06:31:42;7.50;99.90
12013;DHT22;6065;48.138;16.402;2023-11-21T06:34:09;7.50;99.90
12013;DHT22;6065;48.138;16.402;2023-11-21T06:36:36;7.50;99.90
12013;DHT22;6065;48.138;16.402;2023-11-21T06:39:02;7.50;99.90
12013;DHT22;6065;48.138;16.402;2023-11-21T06:41:34;7.50;99.90
12013;DHT22;6065;48.138;16.402;2023-11-21T06:44:04;7.50;99.90
12013;DHT22;6065;48.138;16.402;2023-11-21T06:46:31;7.50;99.90
12013;DHT22;6065;48.138;16.402;2023-11-21T06:48:57;7.50;99.90
12013;DHT22;6065;48.138;16.402;2023-11-21T06:51:24;7.50;99.90
12013;DHT22;6065;48.138;16.402;2023-11-21T06:53:51;7.50;99.90
12013;DHT22;6065;48.138;16.402;2023-11-21T06:56:18;7.50;99.90
12013;DHT22;6065;48.138;16.402;2023-11-21T06:58:46;7.50;99.90
12013;DHT22;6065;48.138;16.402;2023-11-21T07:01:13;7.50;99.90
12013;DHT22;6065;48.138;16.402;2023-11-21T07:03:40;7.60;99.90
12013;DHT22;6065;48.138;16.402;2023-11-21T07:06:07;7.70;99.90
12013;DHT22;6065;48.138;16.402;2023-11-21T07:08:34;7.70;99.90
12013;DHT22;6065;48.138;16.402;2023-11-21T07:11:01;7.70;99.90
12013;DHT22;6065;48.138;16.402;2023-11-21T07:13:28;7.70;99.90
12013;DHT22;6065;48.138;16.402;2023-11-21T07:15:57;7.80;99.90
12013;DHT22;6065;48.138;16.402;2023-11-21T07:18:24;7.80;99.90
12013;DHT22;6065;48.138;16.402;2023-11-21T07:20:50;7.80;99.90
12013;DHT22;6065;48.138;16.402;2023-11-21T07:23:17;7.90;99.90
12013;DHT22;6065;48.138;16.402;2023-11-21T07:25:44;7.90;99.90
12013;DHT22;6065;48.138;16.402;2023-11-21T07:28:11;7.90;99.90
12013;DHT22;6065;48.138;16.402;2023-11-21T07:30:37;7.90;99.90
12013;DHT22;6065;48.138;16.402;2023-11-21T07:33:06;7.90;99.90
12013;DHT22;6065;48.138;16.402;2023-11-21T07:35:32;7.90;99.90
12013;DHT22;6065;48.138;16.402;2023-11-21T07:37:59;7.90;99.90
12013;DHT22;6065;48.138;16.402;2023-11-21T07:40:26;7.90;99.90
12013;DHT22;6065;48.138;16.402;2023-11-21T07:42:54;7.90;99.90
12013;DHT22;6065;48.138;16.402;2023-11-21T07:45:22;7.90;99.90
12013;DHT22;6065;48.138;16.402;2023-11-21T07:47:49;7.90;99.90
12013;DHT22;6065;48.138;16.402;2023-11-21T07:50:17;7.90;99.90
12013;DHT22;6065;48.138;16.402;2023-11-21T07:52:45;7.90;99.90
12013;DHT22;6065;48.138;16.402;2023-11-21T07:55:12;8.00;99.90
12013;DHT22;6065;48.138;16.402;2023-11-21T07:57:39;8.00;99.90
12013;DHT22;6065;48.138;16.402;2023-11-21T08:00:06;8.00;99.90
12013;DHT22;6065;48.138;16.402;2023-11-21T08:02:34;8.00;99.90
12013;DHT22;6065;48.138;16.402;2023-11-21T08:05:01;8.00;99.90
12013;DHT22;6065;48.138;16.402;2023-11-21T08:07:29;8.10;99.90
12013;DHT22;6065;48.138;16.402;2023-11-21T08:09:56;8.10;99.90
12013;DHT22;6065;48.138;16.402;2023-11-21T08:12:24;8.10;99.90
12013;DHT22;6065;48.138;16.402;2023-11-21T08:14:53;8.20;99.90
12013;DHT22;6065;48.138;16.402;2023-11-21T08:17:20;8.30;99.90
12013;DHT22;6065;48.138;16.402;2023-11-21T08:19:46;8.30;99.90
12013;DHT22;6065;48.138;16.402;2023-11-21T08:22:14;8.40;99.90
12013;DHT22;6065;48.138;16.402;2023-11-21T08:24:43;8.50;99.90
12013;DHT22;6065;48.138;16.402;2023-11-21T08:27:10;8.50;99.90
12013;DHT22;6065;48.138;16.402;2023-11-21T08:29:36;8.60;99.90
12013;DHT22;6065;48.138;16.402;2023-11-21T08:32:03;8.70;99.90
12013;DHT22;6065;48.138;16.402;2023-11-21T08:34:30;8.70;99.90
12013;DHT22;6065;48.138;16.402;2023-11-21T08:36:57;8.70;99.90
12013;DHT22;6065;48.138;16.402;2023-11-21T08:39:24;8.80;99.90
12013;DHT22;6065;48.138;16.402;2023-11-21T08:41:53;8.90;99.90
12013;DHT22;6065;48.138;16.402;2023-11-21T08:44:20;9.00;99.90
12013;DHT22;6065;48.138;16.402;2023-11-21T08:46:48;9.00;99.90
12013;DHT22;6065;48.138;16.402;2023-11-21T08:49:15;9.10;99.90
12013;DHT22;6065;48.138;16.402;2023-11-21T08:51:43;9.10;99.90
12013;DHT22;6065;48.138;16.402;2023-11-21T08:54:10;9.20;99.90
12013;DHT22;6065;48.138;16.402;2023-11-21T08:56:37;9.20;99.90
12013;DHT22;6065;48.138;16.402;2023-11-21T08:59:05;9.30;99.90
12013;DHT22;6065;48.138;16.402;2023-11-21T09:01:33;9.40;99.90
12013;DHT22;6065;48.138;16.402;2023-11-21T09:04:00;9.40;99.90
12013;DHT22;6065;48.138;16.402;2023-11-21T09:06:27;9.50;99.90
12013;DHT22;6065;48.138;16.402;2023-11-21T09:08:54;9.50;99.90
12013;DHT22;6065;48.138;16.402;2023-11-21T09:11:21;9.50;99.90
12013;DHT22;6065;48.138;16.402;2023-11-21T09:13:52;9.50;99.90
12013;DHT22;6065;48.138;16.402;2023-11-21T09:16:21;9.50;99.90
12013;DHT22;6065;48.138;16.402;2023-11-21T09:18:47;9.60;99.90
12013;DHT22;6065;48.138;16.402;2023-11-21T09:21:14;9.60;99.90
12013;DHT22;6065;48.138;16.402;2023-11-21T09:23:42;9.60;99.90
12013;DHT22;6065;48.138;16.402;2023-11-21T09:26:10;9.60;99.90
12013;DHT22;6065;48.138;16.402;2023-11-21T09:28:37;9.70;99.90
12013;DHT22;6065;48.138;16.402;2023-11-21T09:31:04;9.70;99.90
12013;DHT22;6065;48.138;16.402;2023-11-21T09:33:35;9.70;99.90
12013;DHT22;6065;48.138;16.402;2023-11-21T09:36:03;9.80;99.90
12013;DHT22;6065;48.138;16.402;2023-11-21T09:38:30;9.80;99.90
12013;DHT22;6065;48.138;16.402;2023-11-21T09:40:57;9.90;99.90
12013;DHT22;6065;48.138;16.402;2023-11-21T09:43:24;9.90;99.90
12013;DHT22;6065;48.138;16.402;2023-11-21T09:45:54;10.00;99.90
12013;DHT22;6065;48.138;16.402;2023-11-21T09:48:21;10.00;99.90
12013;DHT22;6065;48.138;16.402;2023-11-21T09:50:49;10.10;99.90
12013;DHT22;6065;48.138;16.402;2023-11-21T09:53:17;10.10;99.90
12013;DHT22;6065;48.138;16.402;2023-11-21T09:55:47;10.20;99.90
12013;DHT22;6065;48.138;16.402;2023-11-21T09:58:15;10.20;99.90
12013;DHT22;6065;48.138;16.402;2023-11-21T10:00:43;10.20;99.90
12013;DHT22;6065;48.138;16.402;2023-11-21T10:03:09;10.30;99.90
12013;DHT22;6065;48.138;16.402;2023-11-21T10:05:37;10.40;99.90
12013;DHT22;6065;48.138;16.402;2023-11-21T10:08:07;10.40;99.90
12013;DHT22;6065;48.138;16.402;2023-11-21T10:10:35;10.40;99.90
12013;DHT22;6065;48.138;16.402;2023-11-21T10:13:03;10.50;99.90
12013;DHT22;6065;48.138;16.402;2023-11-21T10:15:31;10.60;99.90
12013;DHT22;6065;48.138;16.402;2023-11-21T10:18:00;10.60;99.90
12013;DHT22;6065;48.138;16.402;2023-11-21T10:20:28;10.70;99.90
12013;DHT22;6065;48.138;16.402;2023-11-21T10:22:55;10.80;99.90
12013;DHT22;6065;48.138;16.402;2023-11-21T10:25:23;10.90;99.90
12013;DHT22;6065;48.138;16.402;2023-11-21T10:27:56;11.00;99.90
12013;DHT22;6065;48.138;16.402;2023-11-21T10:30:27;11.00;99.90
12013;DHT22;6065;48.138;16.402;2023-11-21T10:32:58;11.00;99.90
12013;DHT22;6065;48.138;16.402;2023-11-21T10:35:25;11.10;99.90
12013;DHT22;6065;48.138;16.402;2023-11-21T10:38:04;11.30;99.90
12013;DHT22;6065;48.138;16.402;2023-11-21T10:40:32;11.40;99.90
12013;DHT22;6065;48.138;16.402;2023-11-21T10:43:05;11.40;99.90
12013;DHT22;6065;48.138;16.402;2023-11-21T10:45:32;11.60;99.90
12013;DHT22;6065;48.138;16.402;2023-11-21T10:47:59;11.90;99.90
12013;DHT22;6065;48.138;16.402;2023-11-21T10:50:26;12.10;99.90
12013;DHT22;6065;48.138;16.402;2023-11-21T10:52:52;12.30;99.90
12013;DHT22;6065;48.138;16.402;2023-11-21T10:55:19;12.40;99.90
12013;DHT22;6065;48.138;16.402;2023-11-21T10:57:48;12.70;99.90
12013;DHT22;6065;48.138;16.402;2023-11-21T11:00:16;12.90;99.90
12013;DHT22;6065;48.138;16.402;2023-11-21T11:02:45;13.00;99.90
12013;DHT22;6065;48.138;16.402;2023-11-21T11:05:13;12.90;99.90
12013;DHT22;6065;48.138;16.402;2023-11-21T11:07:40;12.70;99.90
12013;DHT22;6065;48.138;16.402;2023-11-21T11:10:08;12.50;99.90
12013;DHT22;6065;48.138;16.402;2023-11-21T11:12:39;12.40;99.90
12013;DHT22;6065;48.138;16.402;2023-11-21T11:15:08;12.20;99.90
12013;DHT22;6065;48.138;16.402;2023-11-21T11:17:36;12.20;99.90
12013;DHT22;6065;48.138;16.402;2023-11-21T11:20:04;12.20;99.90
12013;DHT22;6065;48.138;16.402;2023-11-21T11:22:34;12.30;99.90
12013;DHT22;6065;48.138;16.402;2023-11-21T11:25:06;12.50;99.90
12013;DHT22;6065;48.138;16.402;2023-11-21T11:27:40;12.90;99.90
12013;DHT22;6065;48.138;16.402;2023-11-21T11:30:16;13.10;99.90
12013;DHT22;6065;48.138;16.402;2023-11-21T11:32:48;13.30;99.90
12013;DHT22;6065;48.138;16.402;2023-11-21T11:35:19;13.40;99.90
12013;DHT22;6065;48.138;16.402;2023-11-21T11:37:48;13.40;99.90
12013;DHT22;6065;48.138;16.402;2023-11-21T11:40:15;13.40;99.90
12013;DHT22;6065;48.138;16.402;2023-11-21T11:42:54;13.40;99.90
12013;DHT22;6065;48.138;16.402;2023-11-21T11:45:23;13.40;99.90
12013;DHT22;6065;48.138;16.402;2023-11-21T11:47:56;13.20;99.90
12013;DHT22;6065;48.138;16.402;2023-11-21T11:50:23;13.10;99.90
12013;DHT22;6065;48.138;16.402;2023-11-21T11:52:53;12.90;99.90
12013;DHT22;6065;48.138;16.402;2023-11-21T11:55:20;12.90;99.90
12013;DHT22;6065;48.138;16.402;2023-11-21T11:57:47;12.80;99.90
12013;DHT22;6065;48.138;16.402;2023-11-21T12:00:16;12.80;99.90
12013;DHT22;6065;48.138;16.402;2023-11-21T12:02:46;12.80;99.90
12013;DHT22;6065;48.138;16.402;2023-11-21T12:05:14;12.80;99.90
12013;DHT22;6065;48.138;16.402;2023-11-21T12:07:41;12.70;99.90
12013;DHT22;6065;48.138;16.402;2023-11-21T12:10:10;12.60;99.90
12013;DHT22;6065;48.138;16.402;2023-11-21T12:12:37;12.50;99.90
12013;DHT22;6065;48.138;16.402;2023-11-21T12:15:05;12.30;99.90
12013;DHT22;6065;48.138;16.402;2023-11-21T12:17:31;12.20;99.90
12013;DHT22;6065;48.138;16.402;2023-11-21T12:20:02;12.10;99.90
12013;DHT22;6065;48.138;16.402;2023-11-21T12:22:30;12.00;99.90
12013;DHT22;6065;48.138;16.402;2023-11-21T12:24:57;11.90;99.90
12013;DHT22;6065;48.138;16.402;2023-11-21T12:27:25;11.90;99.90
12013;DHT22;6065;48.138;16.402;2023-11-21T12:29:51;11.80;99.90
12013;DHT22;6065;48.138;16.402;2023-11-21T12:32:21;11.70;99.90
12013;DHT22;6065;48.138;16.402;2023-11-21T12:34:47;11.60;99.90
12013;DHT22;6065;48.138;16.402;2023-11-21T12:37:16;11.60;99.90
12013;DHT22;6065;48.138;16.402;2023-11-21T12:39:43;11.50;99.90
12013;DHT22;6065;48.138;16.402;2023-11-21T12:42:09;11.50;99.90
12013;DHT22;6065;48.138;16.402;2023-11-21T12:44:36;11.40;99.90
12013;DHT22;6065;48.138;16.402;2023-11-21T12:47:06;11.40;99.90
12013;DHT22;6065;48.138;16.402;2023-11-21T12:49:34;11.30;99.90
12013;DHT22;6065;48.138;16.402;2023-11-21T12:52:01;11.30;99.90
12013;DHT22;6065;48.138;16.402;2023-11-21T12:54:30;11.30;99.90
12013;DHT22;6065;48.138;16.402;2023-11-21T12:56:59;11.30;99.90
12013;DHT22;6065;48.138;16.402;2023-11-21T12:59:27;11.20;99.90
12013;DHT22;6065;48.138;16.402;2023-11-21T13:01:55;11.20;99.90
12013;DHT22;6065;48.138;16.402;2023-11-21T13:04:29;11.20;99.90
12013;DHT22;6065;48.138;16.402;2023-11-21T13:06:55;11.20;99.90
12013;DHT22;6065;48.138;16.402;2023-11-21T13:09:33;11.20;99.90
12013;DHT22;6065;48.138;16.402;2023-11-21T13:12:00;11.10;99.90
12013;DHT22;6065;48.138;16.402;2023-11-21T13:14:29;11.20;99.90
12013;DHT22;6065;48.138;16.402;2023-11-21T13:16:57;11.10;99.90
12013;DHT22;6065;48.138;16.402;2023-11-21T13:19:23;11.10;99.90
12013;DHT22;6065;48.138;16.402;2023-11-21T13:21:52;11.10;99.90
12013;DHT22;6065;48.138;16.402;2023-11-21T13:24:19;11.10;99.90
12013;DHT22;6065;48.138;16.402;2023-11-21T13:26:48;11.10;99.90
12013;DHT22;6065;48.138;16.402;2023-11-21T13:29:15;11.10;99.90
12013;DHT22;6065;48.138;16.402;2023-11-21T13:31:42;11.00;99.90
12013;DHT22;6065;48.138;16.402;2023-11-21T13:34:08;11.10;99.90
12013;DHT22;6065;48.138;16.402;2023-11-21T13:36:40;11.10;99.90
12013;DHT22;6065;48.138;16.402;2023-11-21T13:39:07;11.00;99.90
12013;DHT22;6065;48.138;16.402;2023-11-21T13:41:40;11.00;99.90
12013;DHT22;6065;48.138;16.402;2023-11-21T13:44:08;11.00;99.90
12013;DHT22;6065;48.138;16.402;2023-11-21T13:46:41;10.90;99.90
12013;DHT22;6065;48.138;16.402;2023-11-21T13:49:08;10.90;99.90
12013;DHT22;6065;48.138;16.402;2023-11-21T13:51:35;10.90;99.90
12013;DHT22;6065;48.138;16.402;2023-11-21T13:54:06;10.80;99.90
12013;DHT22;6065;48.138;16.402;2023-11-21T13:56:35;10.80;99.90
12013;DHT22;6065;48.138;16.402;2023-11-21T13:59:02;10.80;99.90
12013;DHT22;6065;48.138;16.402;2023-11-21T14:01:40;10.80;99.90
12013;DHT22;6065;48.138;16.402;2023-11-21T14:04:20;10.80;99.90
12013;DHT22;6065;48.138;16.402;2023-11-21T14:07:00;10.80;99.90
12013;DHT22;6065;48.138;16.402;2023-11-21T14:09:42;10.70;99.90
12013;DHT22;6065;48.138;16.402;2023-11-21T14:12:10;10.70;99.90
12013;DHT22;6065;48.138;16.402;2023-11-21T14:14:38;10.70;99.90
12013;DHT22;6065;48.138;16.402;2023-11-21T14:17:07;10.70;99.90
12013;DHT22;6065;48.138;16.402;2023-11-21T14:19:35;10.60;99.90
12013;DHT22;6065;48.138;16.402;2023-11-21T14:22:06;10.60;99.90
12013;DHT22;6065;48.138;16.402;2023-11-21T14:24:33;10.60;99.90
12013;DHT22;6065;48.138;16.402;2023-11-21T14:26:59;10.60;99.90
12013;DHT22;6065;48.138;16.402;2023-11-21T14:29:26;10.60;99.90
12013;DHT22;6065;48.138;16.402;2023-11-21T14:31:55;10.60;99.90
12013;DHT22;6065;48.138;16.402;2023-11-21T14:34:24;10.60;99.90
12013;DHT22;6065;48.138;16.402;2023-11-21T14:36:52;10.50;99.90
12013;DHT22;6065;48.138;16.402;2023-11-21T14:39:18;10.50;99.90
12013;DHT22;6065;48.138;16.402;2023-11-21T14:41:48;10.50;99.90
12013;DHT22;6065;48.138;16.402;2023-11-21T14:44:15;10.50;99.90
12013;DHT22;6065;48.138;16.402;2023-11-21T14:46:42;10.50;99.90
12013;DHT22;6065;48.138;16.402;2023-11-21T14:49:11;10.50;99.90
12013;DHT22;6065;48.138;16.402;2023-11-21T14:51:46;10.50;99.90
12013;DHT22;6065;48.138;16.402;2023-11-21T14:54:28;10.40;99.90
12013;DHT22;6065;48.138;16.402;2023-11-21T14:57:06;10.40;99.90
12013;DHT22;6065;48.138;16.402;2023-11-21T14:59:36;10.40;99.90
12013;DHT22;6065;48.138;16.402;2023-11-21T15:02:04;10.40;99.90
12013;DHT22;6065;48.138;16.402;2023-11-21T15:04:41;10.40;99.90
12013;DHT22;6065;48.138;16.402;2023-11-21T15:07:09;10.40;99.90
12013;DHT22;6065;48.138;16.402;2023-11-21T15:09:36;10.30;99.90
12013;DHT22;6065;48.138;16.402;2023-11-21T15:12:06;10.30;99.90
12013;DHT22;6065;48.138;16.402;2023-11-21T15:14:40;10.30;99.90
12013;DHT22;6065;48.138;16.402;2023-11-21T15:17:08;10.20;99.90
12013;DHT22;6065;48.138;16.402;2023-11-21T15:19:35;10.20;99.90
12013;DHT22;6065;48.138;16.402;2023-11-21T15:22:02;10.20;99.90
12013;DHT22;6065;48.138;16.402;2023-11-21T15:24:30;10.20;99.90
12013;DHT22;6065;48.138;16.402;2023-11-21T15:26:56;10.20;99.90
12013;DHT22;6065;48.138;16.402;2023-11-21T15:29:24;10.10;99.90
12013;DHT22;6065;48.138;16.402;2023-11-21T15:31:51;10.10;99.90
12013;DHT22;6065;48.138;16.402;2023-11-21T15:34:21;10.10;99.90
12013;DHT22;6065;48.138;16.402;2023-11-21T15:36:48;10.00;99.90
12013;DHT22;6065;48.138;16.402;2023-11-21T15:39:18;10.10;99.90
12013;DHT22;6065;48.138;16.402;2023-11-21T15:41:49;10.00;99.90
12013;DHT22;6065;48.138;16.402;2023-11-21T15:44:16;10.00;99.90